Overview Statistics Trail Chart Weather Telemetry Raw packets
 

This is the latest recevied weather packets stored in our database for station/object IW1RID-3. If no packets are shown the sender has not sent any weather packets the latest 10 day(s).

<< 11 12 13 14 15 16 17 >>
Time Temp. Humidity Pressure Rain* Wind** Luminosity Snow
1788277235 31.11° C 53% 1075.3 hPa - - - -
1788276030 31.67° C 54% 1075.3 hPa - - - -
1788274825 31.67° C 54% 1075.4 hPa - - - -
1788273620 32.22° C 54% 1075.7 hPa - - - -
1788272415 31.11° C 58% 1075.6 hPa - - - -
1788271210 31.11° C 57% 1075.7 hPa - - - -
1788270005 30.56° C 59% 1075.8 hPa - - - -
1788268800 31.11° C 57% 1075.9 hPa - - - -
1788267595 31.11° C 56% 1076 hPa - - - -
1788266390 30.56° C 59% 1076.2 hPa - - - -
1788265185 30° C 60% 1076.1 hPa - - - -
1788263981 28.89° C 62% 1076 hPa - - - -
1788262776 28.33° C 65% 1075.9 hPa - - - -
1788260366 28.33° C 62% 1075.7 hPa - - - -
1788259158 28.33° C 62% 1075.6 hPa - - - -
1788257953 28.33° C 62% 1075.5 hPa - - - -
1788256748 28.33° C 62% 1075.5 hPa - - - -
1788255544 27.78° C 63% 1075.5 hPa - - - -
1788254339 27.78° C 63% 1075.5 hPa - - - -
1788253135 27.22° C 56% 1075.5 hPa - - - -
1788251929 27.22° C 58% 1075.1 hPa - - - -
1788250724 26.11° C 58% 1075.1 hPa - - - -
1788249520 24.44° C 63% 1075 hPa - - - -
1788248315 23.33° C 70% 1075 hPa - - - -
1788247110 22.78° C 72% 1074.9 hPa - - - -

* Rain since midnight (hover to see other rain measurements)
** Current wind speed in m/s (hover to see current wind gust speed)